sensor_id;sensor_type;location;lat;lon;timestamp;temperature;humidity
12470;DHT22;36499;46.484;13.832;2022-08-19T00:00:39;16.70;99.90
12470;DHT22;36499;46.484;13.832;2022-08-19T00:03:06;16.70;99.90
12470;DHT22;36499;46.484;13.832;2022-08-19T00:05:34;16.70;99.90
12470;DHT22;36499;46.484;13.832;2022-08-19T00:08:01;16.70;99.90
12470;DHT22;36499;46.484;13.832;2022-08-19T00:10:29;16.70;99.90
12470;DHT22;36499;46.484;13.832;2022-08-19T00:12:56;16.70;99.90
12470;DHT22;36499;46.484;13.832;2022-08-19T00:15:24;16.80;99.90
12470;DHT22;36499;46.484;13.832;2022-08-19T00:17:52;16.80;99.90
12470;DHT22;36499;46.484;13.832;2022-08-19T00:20:21;16.80;99.90
12470;DHT22;36499;46.484;13.832;2022-08-19T00:22:49;16.80;99.90
12470;DHT22;36499;46.484;13.832;2022-08-19T00:25:17;16.80;99.90
12470;DHT22;36499;46.484;13.832;2022-08-19T00:27:44;16.80;99.90
12470;DHT22;36499;46.484;13.832;2022-08-19T00:30:12;16.80;99.90
12470;DHT22;36499;46.484;13.832;2022-08-19T00:32:39;16.80;99.90
12470;DHT22;36499;46.484;13.832;2022-08-19T00:35:09;16.70;99.90
12470;DHT22;36499;46.484;13.832;2022-08-19T00:37:37;16.70;99.90
12470;DHT22;36499;46.484;13.832;2022-08-19T00:40:10;16.70;99.90
12470;DHT22;36499;46.484;13.832;2022-08-19T00:42:39;16.70;99.90
12470;DHT22;36499;46.484;13.832;2022-08-19T00:45:11;16.60;99.90
12470;DHT22;36499;46.484;13.832;2022-08-19T00:47:40;16.60;99.90
12470;DHT22;36499;46.484;13.832;2022-08-19T00:50:11;16.70;99.90
12470;DHT22;36499;46.484;13.832;2022-08-19T00:52:43;16.60;99.90
12470;DHT22;36499;46.484;13.832;2022-08-19T00:55:16;16.50;99.90
12470;DHT22;36499;46.484;13.832;2022-08-19T00:57:48;16.50;99.90
12470;DHT22;36499;46.484;13.832;2022-08-19T01:00:21;16.50;99.90
12470;DHT22;36499;46.484;13.832;2022-08-19T01:02:49;16.50;99.90
12470;DHT22;36499;46.484;13.832;2022-08-19T01:05:21;16.50;99.90
12470;DHT22;36499;46.484;13.832;2022-08-19T01:07:53;16.50;99.90
12470;DHT22;36499;46.484;13.832;2022-08-19T01:10:26;16.40;99.90
12470;DHT22;36499;46.484;13.832;2022-08-19T01:12:57;16.50;99.90
12470;DHT22;36499;46.484;13.832;2022-08-19T01:15:29;16.50;99.90
12470;DHT22;36499;46.484;13.832;2022-08-19T01:18:00;16.50;99.90
12470;DHT22;36499;46.484;13.832;2022-08-19T01:20:34;16.40;99.90
12470;DHT22;36499;46.484;13.832;2022-08-19T01:23:03;16.40;99.90
12470;DHT22;36499;46.484;13.832;2022-08-19T01:25:33;16.40;99.90
12470;DHT22;36499;46.484;13.832;2022-08-19T01:28:06;16.40;99.90
12470;DHT22;36499;46.484;13.832;2022-08-19T01:30:34;16.40;99.90
12470;DHT22;36499;46.484;13.832;2022-08-19T01:33:02;16.40;99.90
12470;DHT22;36499;46.484;13.832;2022-08-19T01:35:31;16.40;99.90
12470;DHT22;36499;46.484;13.832;2022-08-19T01:38:02;16.40;99.90
12470;DHT22;36499;46.484;13.832;2022-08-19T01:40:35;16.30;99.90
12470;DHT22;36499;46.484;13.832;2022-08-19T01:43:05;16.30;99.90
12470;DHT22;36499;46.484;13.832;2022-08-19T01:45:34;16.30;99.90
12470;DHT22;36499;46.484;13.832;2022-08-19T01:48:06;16.30;99.90
12470;DHT22;36499;46.484;13.832;2022-08-19T01:50:35;16.20;99.90
12470;DHT22;36499;46.484;13.832;2022-08-19T01:53:08;16.30;99.90
12470;DHT22;36499;46.484;13.832;2022-08-19T01:55:39;16.30;99.90
12470;DHT22;36499;46.484;13.832;2022-08-19T01:58:11;16.30;99.90
12470;DHT22;36499;46.484;13.832;2022-08-19T02:00:41;16.30;99.90
12470;DHT22;36499;46.484;13.832;2022-08-19T02:03:09;16.30;99.90
12470;DHT22;36499;46.484;13.832;2022-08-19T02:05:37;16.30;99.90
12470;DHT22;36499;46.484;13.832;2022-08-19T02:08:05;16.30;99.90
12470;DHT22;36499;46.484;13.832;2022-08-19T02:10:38;16.30;99.90
12470;DHT22;36499;46.484;13.832;2022-08-19T02:13:10;16.40;99.90
12470;DHT22;36499;46.484;13.832;2022-08-19T02:15:39;16.40;99.90
12470;DHT22;36499;46.484;13.832;2022-08-19T02:18:06;16.40;99.90
12470;DHT22;36499;46.484;13.832;2022-08-19T02:20:34;16.40;99.90
12470;DHT22;36499;46.484;13.832;2022-08-19T02:23:01;16.50;99.90
12470;DHT22;36499;46.484;13.832;2022-08-19T02:25:30;16.40;99.90
12470;DHT22;36499;46.484;13.832;2022-08-19T02:27:57;16.40;99.90
12470;DHT22;36499;46.484;13.832;2022-08-19T02:30:24;16.50;99.90
12470;DHT22;36499;46.484;13.832;2022-08-19T02:32:52;16.50;99.90
12470;DHT22;36499;46.484;13.832;2022-08-19T02:35:20;16.50;99.90
12470;DHT22;36499;46.484;13.832;2022-08-19T02:37:48;16.50;99.90
12470;DHT22;36499;46.484;13.832;2022-08-19T02:40:34;16.50;99.90
12470;DHT22;36499;46.484;13.832;2022-08-19T02:43:06;16.50;99.90
12470;DHT22;36499;46.484;13.832;2022-08-19T02:45:35;16.50;99.90
12470;DHT22;36499;46.484;13.832;2022-08-19T02:48:04;16.50;99.90
12470;DHT22;36499;46.484;13.832;2022-08-19T02:50:32;16.50;99.90
12470;DHT22;36499;46.484;13.832;2022-08-19T02:52:59;16.50;99.90
12470;DHT22;36499;46.484;13.832;2022-08-19T02:55:26;16.50;99.90
12470;DHT22;36499;46.484;13.832;2022-08-19T02:57:54;16.50;99.90
12470;DHT22;36499;46.484;13.832;2022-08-19T03:00:22;16.50;99.90
12470;DHT22;36499;46.484;13.832;2022-08-19T03:02:50;16.40;99.90
12470;DHT22;36499;46.484;13.832;2022-08-19T03:05:17;16.40;99.90
12470;DHT22;36499;46.484;13.832;2022-08-19T03:07:44;16.40;99.90
12470;DHT22;36499;46.484;13.832;2022-08-19T03:10:13;16.40;99.90
12470;DHT22;36499;46.484;13.832;2022-08-19T03:12:40;16.40;99.90
12470;DHT22;36499;46.484;13.832;2022-08-19T03:15:09;16.30;99.90
12470;DHT22;36499;46.484;13.832;2022-08-19T03:17:36;16.30;99.90
12470;DHT22;36499;46.484;13.832;2022-08-19T03:20:04;16.30;99.90
12470;DHT22;36499;46.484;13.832;2022-08-19T03:22:32;16.30;99.90
12470;DHT22;36499;46.484;13.832;2022-08-19T03:24:59;16.30;99.90
12470;DHT22;36499;46.484;13.832;2022-08-19T03:27:26;16.30;99.90
12470;DHT22;36499;46.484;13.832;2022-08-19T03:29:54;16.30;99.90
12470;DHT22;36499;46.484;13.832;2022-08-19T03:32:22;16.40;99.90
12470;DHT22;36499;46.484;13.832;2022-08-19T03:34:49;16.30;99.90
12470;DHT22;36499;46.484;13.832;2022-08-19T03:37:17;16.30;99.90
12470;DHT22;36499;46.484;13.832;2022-08-19T03:39:45;16.40;99.90
12470;DHT22;36499;46.484;13.832;2022-08-19T03:42:12;16.40;99.90
12470;DHT22;36499;46.484;13.832;2022-08-19T03:44:39;16.40;99.90
12470;DHT22;36499;46.484;13.832;2022-08-19T03:47:07;16.40;99.90
12470;DHT22;36499;46.484;13.832;2022-08-19T03:49:36;16.40;99.90
12470;DHT22;36499;46.484;13.832;2022-08-19T03:52:04;16.40;99.90
12470;DHT22;36499;46.484;13.832;2022-08-19T03:54:34;16.30;99.90
12470;DHT22;36499;46.484;13.832;2022-08-19T03:57:03;16.40;99.90
12470;DHT22;36499;46.484;13.832;2022-08-19T03:59:32;16.30;99.90
12470;DHT22;36499;46.484;13.832;2022-08-19T04:02:03;16.30;99.90
12470;DHT22;36499;46.484;13.832;2022-08-19T04:04:36;16.30;99.90
12470;DHT22;36499;46.484;13.832;2022-08-19T04:07:04;16.20;99.90
12470;DHT22;36499;46.484;13.832;2022-08-19T04:09:33;16.20;99.90
12470;DHT22;36499;46.484;13.832;2022-08-19T04:12:02;16.20;99.90
12470;DHT22;36499;46.484;13.832;2022-08-19T04:14:32;16.10;99.90
12470;DHT22;36499;46.484;13.832;2022-08-19T04:17:00;16.10;99.90
12470;DHT22;36499;46.484;13.832;2022-08-19T04:19:29;16.10;99.90
12470;DHT22;36499;46.484;13.832;2022-08-19T04:21:59;16.20;99.90
12470;DHT22;36499;46.484;13.832;2022-08-19T04:24:26;16.10;99.90
12470;DHT22;36499;46.484;13.832;2022-08-19T04:26:53;16.20;99.90
12470;DHT22;36499;46.484;13.832;2022-08-19T04:29:24;16.20;99.90
12470;DHT22;36499;46.484;13.832;2022-08-19T04:31:53;16.20;99.90
12470;DHT22;36499;46.484;13.832;2022-08-19T04:34:24;16.20;99.90
12470;DHT22;36499;46.484;13.832;2022-08-19T04:36:55;16.30;99.90
12470;DHT22;36499;46.484;13.832;2022-08-19T04:39:27;16.20;99.90
12470;DHT22;36499;46.484;13.832;2022-08-19T04:42:11;16.20;99.90
12470;DHT22;36499;46.484;13.832;2022-08-19T04:44:56;16.20;99.90
12470;DHT22;36499;46.484;13.832;2022-08-19T04:47:24;16.20;99.90
12470;DHT22;36499;46.484;13.832;2022-08-19T04:49:51;16.10;99.90
12470;DHT22;36499;46.484;13.832;2022-08-19T04:52:18;16.10;99.90
12470;DHT22;36499;46.484;13.832;2022-08-19T04:54:46;16.10;99.90
12470;DHT22;36499;46.484;13.832;2022-08-19T04:57:14;16.10;99.90
12470;DHT22;36499;46.484;13.832;2022-08-19T04:59:41;16.00;99.90
12470;DHT22;36499;46.484;13.832;2022-08-19T05:02:09;16.00;99.90
12470;DHT22;36499;46.484;13.832;2022-08-19T05:04:36;16.00;99.90
12470;DHT22;36499;46.484;13.832;2022-08-19T05:07:05;16.00;99.90
12470;DHT22;36499;46.484;13.832;2022-08-19T05:09:32;16.00;99.90
12470;DHT22;36499;46.484;13.832;2022-08-19T05:12:03;16.00;99.90
12470;DHT22;36499;46.484;13.832;2022-08-19T05:14:31;15.90;99.90
12470;DHT22;36499;46.484;13.832;2022-08-19T05:16:58;15.90;99.90
12470;DHT22;36499;46.484;13.832;2022-08-19T05:19:25;15.90;99.90
12470;DHT22;36499;46.484;13.832;2022-08-19T05:22:24;15.90;99.90
12470;DHT22;36499;46.484;13.832;2022-08-19T05:25:05;15.90;99.90
12470;DHT22;36499;46.484;13.832;2022-08-19T05:27:35;16.00;99.90
12470;DHT22;36499;46.484;13.832;2022-08-19T05:30:04;16.10;99.90
12470;DHT22;36499;46.484;13.832;2022-08-19T05:32:32;16.10;99.90
12470;DHT22;36499;46.484;13.832;2022-08-19T05:34:59;16.10;99.90
12470;DHT22;36499;46.484;13.832;2022-08-19T05:37:26;16.00;99.90
12470;DHT22;36499;46.484;13.832;2022-08-19T05:39:53;16.00;99.90
12470;DHT22;36499;46.484;13.832;2022-08-19T05:42:21;16.00;99.90
12470;DHT22;36499;46.484;13.832;2022-08-19T05:44:50;16.00;99.90
12470;DHT22;36499;46.484;13.832;2022-08-19T05:47:18;16.00;99.90
12470;DHT22;36499;46.484;13.832;2022-08-19T05:49:46;16.20;99.90
12470;DHT22;36499;46.484;13.832;2022-08-19T05:52:15;16.00;99.90
12470;DHT22;36499;46.484;13.832;2022-08-19T05:54:42;16.00;99.90
12470;DHT22;36499;46.484;13.832;2022-08-19T05:57:13;16.00;99.90
12470;DHT22;36499;46.484;13.832;2022-08-19T05:59:41;16.00;99.90
12470;DHT22;36499;46.484;13.832;2022-08-19T06:02:10;16.00;99.90
12470;DHT22;36499;46.484;13.832;2022-08-19T06:04:39;16.00;99.90
12470;DHT22;36499;46.484;13.832;2022-08-19T06:07:08;16.10;99.90
12470;DHT22;36499;46.484;13.832;2022-08-19T06:09:35;16.10;99.90
12470;DHT22;36499;46.484;13.832;2022-08-19T06:12:03;16.10;99.90
12470;DHT22;36499;46.484;13.832;2022-08-19T06:14:32;16.10;99.90
12470;DHT22;36499;46.484;13.832;2022-08-19T06:17:01;16.10;99.90
12470;DHT22;36499;46.484;13.832;2022-08-19T06:19:31;16.10;99.90
12470;DHT22;36499;46.484;13.832;2022-08-19T06:21:59;16.10;99.90
12470;DHT22;36499;46.484;13.832;2022-08-19T06:24:29;16.20;99.90
12470;DHT22;36499;46.484;13.832;2022-08-19T06:26:58;16.20;99.90
12470;DHT22;36499;46.484;13.832;2022-08-19T06:29:26;16.20;99.90
12470;DHT22;36499;46.484;13.832;2022-08-19T06:31:57;16.10;99.90
12470;DHT22;36499;46.484;13.832;2022-08-19T06:34:27;16.10;99.90
12470;DHT22;36499;46.484;13.832;2022-08-19T06:36:58;16.10;99.90
12470;DHT22;36499;46.484;13.832;2022-08-19T06:39:30;16.10;99.90
12470;DHT22;36499;46.484;13.832;2022-08-19T06:42:01;16.10;99.90
12470;DHT22;36499;46.484;13.832;2022-08-19T06:44:33;16.10;99.90
12470;DHT22;36499;46.484;13.832;2022-08-19T06:47:04;16.10;99.90
12470;DHT22;36499;46.484;13.832;2022-08-19T06:49:34;16.10;99.90
12470;DHT22;36499;46.484;13.832;2022-08-19T06:52:04;16.20;99.90
12470;DHT22;36499;46.484;13.832;2022-08-19T06:54:32;16.20;99.90
12470;DHT22;36499;46.484;13.832;2022-08-19T06:57:00;16.20;99.90
12470;DHT22;36499;46.484;13.832;2022-08-19T06:59:30;16.20;99.90
12470;DHT22;36499;46.484;13.832;2022-08-19T07:01:59;16.20;99.90
12470;DHT22;36499;46.484;13.832;2022-08-19T07:04:29;16.20;99.90
12470;DHT22;36499;46.484;13.832;2022-08-19T07:06:58;16.20;99.90
12470;DHT22;36499;46.484;13.832;2022-08-19T07:09:28;16.30;99.90
12470;DHT22;36499;46.484;13.832;2022-08-19T07:11:59;16.30;99.90
12470;DHT22;36499;46.484;13.832;2022-08-19T07:14:27;16.40;99.90
12470;DHT22;36499;46.484;13.832;2022-08-19T07:16:56;16.40;99.90
12470;DHT22;36499;46.484;13.832;2022-08-19T07:19:25;16.50;99.90
12470;DHT22;36499;46.484;13.832;2022-08-19T07:21:54;16.60;99.90
12470;DHT22;36499;46.484;13.832;2022-08-19T07:24:23;16.70;99.90
12470;DHT22;36499;46.484;13.832;2022-08-19T07:26:58;16.80;99.90
12470;DHT22;36499;46.484;13.832;2022-08-19T07:29:30;16.80;99.90
12470;DHT22;36499;46.484;13.832;2022-08-19T07:32:01;16.90;99.90
12470;DHT22;36499;46.484;13.832;2022-08-19T07:34:30;16.90;99.90
12470;DHT22;36499;46.484;13.832;2022-08-19T07:37:00;16.90;99.90
12470;DHT22;36499;46.484;13.832;2022-08-19T07:39:30;16.90;99.90
12470;DHT22;36499;46.484;13.832;2022-08-19T07:42:04;17.00;99.90
12470;DHT22;36499;46.484;13.832;2022-08-19T07:44:34;17.00;99.90
12470;DHT22;36499;46.484;13.832;2022-08-19T07:47:04;17.10;99.90
12470;DHT22;36499;46.484;13.832;2022-08-19T07:49:32;17.00;99.90
12470;DHT22;36499;46.484;13.832;2022-08-19T07:52:01;16.90;99.90
12470;DHT22;36499;46.484;13.832;2022-08-19T07:54:33;16.90;99.90
12470;DHT22;36499;46.484;13.832;2022-08-19T07:57:04;16.90;99.90
12470;DHT22;36499;46.484;13.832;2022-08-19T07:59:32;16.90;99.90
12470;DHT22;36499;46.484;13.832;2022-08-19T08:02:00;16.90;99.90
12470;DHT22;36499;46.484;13.832;2022-08-19T08:04:28;17.00;99.90
12470;DHT22;36499;46.484;13.832;2022-08-19T08:07:13;17.00;99.90
12470;DHT22;36499;46.484;13.832;2022-08-19T08:09:59;17.00;99.90
12470;DHT22;36499;46.484;13.832;2022-08-19T08:12:30;17.10;99.90
12470;DHT22;36499;46.484;13.832;2022-08-19T08:15:05;17.10;99.90
12470;DHT22;36499;46.484;13.832;2022-08-19T08:17:35;17.10;99.90
12470;DHT22;36499;46.484;13.832;2022-08-19T08:20:03;17.10;99.90
12470;DHT22;36499;46.484;13.832;2022-08-19T08:22:33;17.10;99.90
12470;DHT22;36499;46.484;13.832;2022-08-19T08:25:20;17.10;99.90
12470;DHT22;36499;46.484;13.832;2022-08-19T08:27:50;17.20;99.90
12470;DHT22;36499;46.484;13.832;2022-08-19T08:30:24;17.20;99.90
12470;DHT22;36499;46.484;13.832;2022-08-19T08:32:53;17.30;99.90
12470;DHT22;36499;46.484;13.832;2022-08-19T08:35:22;17.30;99.90
12470;DHT22;36499;46.484;13.832;2022-08-19T08:37:53;17.30;99.90
12470;DHT22;36499;46.484;13.832;2022-08-19T08:40:26;17.30;99.90
12470;DHT22;36499;46.484;13.832;2022-08-19T08:43:02;17.20;99.90
12470;DHT22;36499;46.484;13.832;2022-08-19T08:45:34;17.20;99.90
12470;DHT22;36499;46.484;13.832;2022-08-19T08:48:15;17.30;99.90
12470;DHT22;36499;46.484;13.832;2022-08-19T08:50:48;17.40;99.90
12470;DHT22;36499;46.484;13.832;2022-08-19T08:53:19;17.40;99.90
12470;DHT22;36499;46.484;13.832;2022-08-19T08:55:48;17.30;99.90
12470;DHT22;36499;46.484;13.832;2022-08-19T08:58:21;17.30;99.90
12470;DHT22;36499;46.484;13.832;2022-08-19T09:00:54;17.30;99.90
12470;DHT22;36499;46.484;13.832;2022-08-19T09:03:24;17.30;99.90
12470;DHT22;36499;46.484;13.832;2022-08-19T09:05:59;17.30;99.90
12470;DHT22;36499;46.484;13.832;2022-08-19T09:08:36;17.20;99.90
12470;DHT22;36499;46.484;13.832;2022-08-19T09:11:15;17.20;99.90
12470;DHT22;36499;46.484;13.832;2022-08-19T09:14:02;17.20;99.90
12470;DHT22;36499;46.484;13.832;2022-08-19T09:16:37;17.20;99.90
12470;DHT22;36499;46.484;13.832;2022-08-19T09:19:07;17.20;99.90
12470;DHT22;36499;46.484;13.832;2022-08-19T09:21:36;17.30;99.90
12470;DHT22;36499;46.484;13.832;2022-08-19T09:24:05;17.30;99.90
12470;DHT22;36499;46.484;13.832;2022-08-19T09:26:33;17.30;99.90
12470;DHT22;36499;46.484;13.832;2022-08-19T09:29:02;17.30;99.90
12470;DHT22;36499;46.484;13.832;2022-08-19T09:31:31;17.20;99.90
12470;DHT22;36499;46.484;13.832;2022-08-19T09:33:59;17.10;99.90
12470;DHT22;36499;46.484;13.832;2022-08-19T09:36:29;17.10;99.90
12470;DHT22;36499;46.484;13.832;2022-08-19T09:38:59;17.00;99.90
12470;DHT22;36499;46.484;13.832;2022-08-19T09:41:26;16.90;99.90
12470;DHT22;36499;46.484;13.832;2022-08-19T09:43:55;16.90;99.90
12470;DHT22;36499;46.484;13.832;2022-08-19T09:46:27;16.80;99.90
12470;DHT22;36499;46.484;13.832;2022-08-19T09:48:59;16.80;99.90
12470;DHT22;36499;46.484;13.832;2022-08-19T09:51:27;16.70;99.90
12470;DHT22;36499;46.484;13.832;2022-08-19T09:53:59;16.70;99.90
12470;DHT22;36499;46.484;13.832;2022-08-19T09:56:28;16.60;99.90
12470;DHT22;36499;46.484;13.832;2022-08-19T09:58:58;16.50;99.90
12470;DHT22;36499;46.484;13.832;2022-08-19T10:01:29;16.50;99.90
12470;DHT22;36499;46.484;13.832;2022-08-19T10:03:58;16.50;99.90
12470;DHT22;36499;46.484;13.832;2022-08-19T10:06:28;16.50;99.90
12470;DHT22;36499;46.484;13.832;2022-08-19T10:08:58;16.40;99.90
12470;DHT22;36499;46.484;13.832;2022-08-19T10:11:26;16.40;99.90
12470;DHT22;36499;46.484;13.832;2022-08-19T10:13:54;16.40;99.90
12470;DHT22;36499;46.484;13.832;2022-08-19T10:16:23;16.40;99.90
12470;DHT22;36499;46.484;13.832;2022-08-19T10:18:53;16.40;99.90
12470;DHT22;36499;46.484;13.832;2022-08-19T10:21:23;16.40;99.90
12470;DHT22;36499;46.484;13.832;2022-08-19T10:23:54;16.40;99.90
12470;DHT22;36499;46.484;13.832;2022-08-19T10:26:25;16.40;99.90
12470;DHT22;36499;46.484;13.832;2022-08-19T10:28:54;16.40;99.90
12470;DHT22;36499;46.484;13.832;2022-08-19T10:31:25;16.40;99.90
12470;DHT22;36499;46.484;13.832;2022-08-19T10:33:55;16.40;99.90
12470;DHT22;36499;46.484;13.832;2022-08-19T10:36:26;16.40;99.90
12470;DHT22;36499;46.484;13.832;2022-08-19T10:38:56;16.30;99.90
12470;DHT22;36499;46.484;13.832;2022-08-19T10:41:29;16.20;99.90
12470;DHT22;36499;46.484;13.832;2022-08-19T10:44:00;16.10;99.90
12470;DHT22;36499;46.484;13.832;2022-08-19T10:46:30;16.10;99.90
12470;DHT22;36499;46.484;13.832;2022-08-19T10:49:00;16.00;99.90
12470;DHT22;36499;46.484;13.832;2022-08-19T10:51:28;15.90;99.90
12470;DHT22;36499;46.484;13.832;2022-08-19T10:54:13;15.80;99.90
12470;DHT22;36499;46.484;13.832;2022-08-19T10:56:41;15.90;99.90
12470;DHT22;36499;46.484;13.832;2022-08-19T10:59:23;15.90;99.90
12470;DHT22;36499;46.484;13.832;2022-08-19T11:01:54;16.00;99.90
12470;DHT22;36499;46.484;13.832;2022-08-19T11:04:27;16.00;99.90
12470;DHT22;36499;46.484;13.832;2022-08-19T11:06:57;16.10;99.90
12470;DHT22;36499;46.484;13.832;2022-08-19T11:09:26;16.10;99.90
12470;DHT22;36499;46.484;13.832;2022-08-19T11:11:53;16.20;99.90
12470;DHT22;36499;46.484;13.832;2022-08-19T11:14:22;16.20;99.90
12470;DHT22;36499;46.484;13.832;2022-08-19T11:16:51;16.30;99.90
12470;DHT22;36499;46.484;13.832;2022-08-19T11:19:21;16.40;99.90
12470;DHT22;36499;46.484;13.832;2022-08-19T11:21:52;16.50;99.90
12470;DHT22;36499;46.484;13.832;2022-08-19T11:24:22;16.70;99.90
12470;DHT22;36499;46.484;13.832;2022-08-19T11:26:53;16.80;99.90
12470;DHT22;36499;46.484;13.832;2022-08-19T11:29:28;16.80;99.90
12470;DHT22;36499;46.484;13.832;2022-08-19T11:31:55;17.00;99.90
12470;DHT22;36499;46.484;13.832;2022-08-19T11:34:24;17.10;99.90
12470;DHT22;36499;46.484;13.832;2022-08-19T11:36:55;17.30;99.90
12470;DHT22;36499;46.484;13.832;2022-08-19T11:39:26;17.70;99.90
12470;DHT22;36499;46.484;13.832;2022-08-19T11:41:57;17.80;99.90
12470;DHT22;36499;46.484;13.832;2022-08-19T11:44:25;17.80;99.90
12470;DHT22;36499;46.484;13.832;2022-08-19T11:46:56;17.80;99.90
12470;DHT22;36499;46.484;13.832;2022-08-19T11:49:25;17.80;99.90
12470;DHT22;36499;46.484;13.832;2022-08-19T11:51:52;17.80;99.90
12470;DHT22;36499;46.484;13.832;2022-08-19T11:54:21;17.70;99.90
12470;DHT22;36499;46.484;13.832;2022-08-19T11:56:48;17.60;99.90
12470;DHT22;36499;46.484;13.832;2022-08-19T11:59:15;17.50;99.90
12470;DHT22;36499;46.484;13.832;2022-08-19T12:01:42;17.50;99.90
12470;DHT22;36499;46.484;13.832;2022-08-19T12:04:10;17.40;99.90
12470;DHT22;36499;46.484;13.832;2022-08-19T12:06:39;17.30;99.90
12470;DHT22;36499;46.484;13.832;2022-08-19T12:09:09;17.20;99.90
12470;DHT22;36499;46.484;13.832;2022-08-19T12:11:38;17.10;99.90
12470;DHT22;36499;46.484;13.832;2022-08-19T12:14:08;17.10;99.90
12470;DHT22;36499;46.484;13.832;2022-08-19T12:16:37;17.10;99.90
12470;DHT22;36499;46.484;13.832;2022-08-19T12:19:05;17.10;99.90
12470;DHT22;36499;46.484;13.832;2022-08-19T12:21:34;17.10;99.90
12470;DHT22;36499;46.484;13.832;2022-08-19T12:24:04;17.10;99.90
12470;DHT22;36499;46.484;13.832;2022-08-19T12:26:34;17.10;99.90
12470;DHT22;36499;46.484;13.832;2022-08-19T12:29:02;17.10;99.90
12470;DHT22;36499;46.484;13.832;2022-08-19T12:31:30;17.10;99.90
12470;DHT22;36499;46.484;13.832;2022-08-19T12:33:58;17.10;99.90
12470;DHT22;36499;46.484;13.832;2022-08-19T12:36:28;17.10;99.90
12470;DHT22;36499;46.484;13.832;2022-08-19T12:38:57;17.10;99.90
12470;DHT22;36499;46.484;13.832;2022-08-19T12:41:25;17.10;99.90
12470;DHT22;36499;46.484;13.832;2022-08-19T12:43:54;17.00;99.90
12470;DHT22;36499;46.484;13.832;2022-08-19T12:46:21;17.00;99.90
12470;DHT22;36499;46.484;13.832;2022-08-19T12:48:49;17.00;99.90
12470;DHT22;36499;46.484;13.832;2022-08-19T12:51:18;17.00;99.90
12470;DHT22;36499;46.484;13.832;2022-08-19T12:53:46;16.90;99.90
12470;DHT22;36499;46.484;13.832;2022-08-19T12:56:15;16.80;99.90
12470;DHT22;36499;46.484;13.832;2022-08-19T12:58:43;16.80;99.90
12470;DHT22;36499;46.484;13.832;2022-08-19T13:01:14;16.70;99.90
12470;DHT22;36499;46.484;13.832;2022-08-19T13:03:45;16.70;99.90
12470;DHT22;36499;46.484;13.832;2022-08-19T13:06:13;16.60;99.90
12470;DHT22;36499;46.484;13.832;2022-08-19T13:08:41;16.60;99.90
12470;DHT22;36499;46.484;13.832;2022-08-19T13:11:10;16.60;99.90
12470;DHT22;36499;46.484;13.832;2022-08-19T13:13:40;16.70;99.90
12470;DHT22;36499;46.484;13.832;2022-08-19T13:16:10;16.70;99.90
12470;DHT22;36499;46.484;13.832;2022-08-19T13:18:40;16.70;99.90
12470;DHT22;36499;46.484;13.832;2022-08-19T13:21:10;16.70;99.90
12470;DHT22;36499;46.484;13.832;2022-08-19T13:23:39;16.70;99.90
12470;DHT22;36499;46.484;13.832;2022-08-19T13:26:10;16.80;99.90
12470;DHT22;36499;46.484;13.832;2022-08-19T13:28:39;16.70;99.90
12470;DHT22;36499;46.484;13.832;2022-08-19T13:31:30;16.90;99.90
12470;DHT22;36499;46.484;13.832;2022-08-19T13:34:17;17.00;99.90
12470;DHT22;36499;46.484;13.832;2022-08-19T13:36:46;17.20;99.90
12470;DHT22;36499;46.484;13.832;2022-08-19T13:39:13;17.30;99.90
12470;DHT22;36499;46.484;13.832;2022-08-19T13:41:44;17.50;99.90
12470;DHT22;36499;46.484;13.832;2022-08-19T13:44:13;17.70;99.90
12470;DHT22;36499;46.484;13.832;2022-08-19T13:46:45;17.90;99.90
12470;DHT22;36499;46.484;13.832;2022-08-19T13:49:14;18.20;99.90
12470;DHT22;36499;46.484;13.832;2022-08-19T13:51:42;18.40;99.90
12470;DHT22;36499;46.484;13.832;2022-08-19T13:54:11;18.70;99.90
12470;DHT22;36499;46.484;13.832;2022-08-19T13:56:40;18.80;99.90
12470;DHT22;36499;46.484;13.832;2022-08-19T13:59:09;18.90;99.90
12470;DHT22;36499;46.484;13.832;2022-08-19T14:01:36;19.00;99.90
12470;DHT22;36499;46.484;13.832;2022-08-19T14:04:05;19.10;99.90
12470;DHT22;36499;46.484;13.832;2022-08-19T14:06:33;19.30;99.90
12470;DHT22;36499;46.484;13.832;2022-08-19T14:09:01;19.50;99.90
12470;DHT22;36499;46.484;13.832;2022-08-19T14:11:29;19.60;99.90
12470;DHT22;36499;46.484;13.832;2022-08-19T14:13:56;19.80;99.90
12470;DHT22;36499;46.484;13.832;2022-08-19T14:16:23;19.90;99.90
12470;DHT22;36499;46.484;13.832;2022-08-19T14:18:50;20.10;99.90
12470;DHT22;36499;46.484;13.832;2022-08-19T14:21:22;20.10;99.90
12470;DHT22;36499;46.484;13.832;2022-08-19T14:23:51;20.20;99.90
12470;DHT22;36499;46.484;13.832;2022-08-19T14:26:22;20.40;99.90
12470;DHT22;36499;46.484;13.832;2022-08-19T14:28:50;20.60;99.90
12470;DHT22;36499;46.484;13.832;2022-08-19T14:31:19;20.70;99.90
12470;DHT22;36499;46.484;13.832;2022-08-19T14:33:50;21.00;99.90
12470;DHT22;36499;46.484;13.832;2022-08-19T14:36:17;21.30;99.90
12470;DHT22;36499;46.484;13.832;2022-08-19T14:38:46;21.60;99.90
12470;DHT22;36499;46.484;13.832;2022-08-19T14:41:16;21.90;99.90
12470;DHT22;36499;46.484;13.832;2022-08-19T14:43:45;22.10;99.90
12470;DHT22;36499;46.484;13.832;2022-08-19T14:46:16;22.00;99.90
12470;DHT22;36499;46.484;13.832;2022-08-19T14:48:46;22.10;99.90
12470;DHT22;36499;46.484;13.832;2022-08-19T14:51:14;22.10;99.90
12470;DHT22;36499;46.484;13.832;2022-08-19T14:53:41;22.20;99.90
12470;DHT22;36499;46.484;13.832;2022-08-19T14:56:12;22.10;99.90
12470;DHT22;36499;46.484;13.832;2022-08-19T14:58:41;22.10;99.90
12470;DHT22;36499;46.484;13.832;2022-08-19T15:01:10;22.30;99.90
12470;DHT22;36499;46.484;13.832;2022-08-19T15:03:39;22.40;99.90
12470;DHT22;36499;46.484;13.832;2022-08-19T15:06:07;22.60;99.90
12470;DHT22;36499;46.484;13.832;2022-08-19T15:08:37;22.80;99.90
12470;DHT22;36499;46.484;13.832;2022-08-19T15:11:10;23.00;99.90
12470;DHT22;36499;46.484;13.832;2022-08-19T15:13:46;23.20;99.90
12470;DHT22;36499;46.484;13.832;2022-08-19T15:16:16;23.20;99.90
12470;DHT22;36499;46.484;13.832;2022-08-19T15:18:44;23.30;99.90
12470;DHT22;36499;46.484;13.832;2022-08-19T15:21:14;23.40;99.90
12470;DHT22;36499;46.484;13.832;2022-08-19T15:23:43;23.60;99.90
12470;DHT22;36499;46.484;13.832;2022-08-19T15:26:12;23.70;99.90
12470;DHT22;36499;46.484;13.832;2022-08-19T15:28:39;24.00;99.90
12470;DHT22;36499;46.484;13.832;2022-08-19T15:31:06;24.10;99.90